Time;durP1;ratioP1;P1;durP2;ratioP2;P2;SDS_P1;SDS_P2;PMS_P1;PMS_P2;Temp;Humidity;BMP_temperature;BMP_pressure;BME280_temperature;BME280_humidity;BME280_pressure;Samples;Min_cycle;Max_cycle;Signal;HPM_P1;HPM_P2
2023/08/05 00:01:34;;;;;;;4.70;3.55;;;;;;;;;;4967968;28;20045;-61
2023/08/05 00:04:00;;;;;;;5.63;3.60;;;;;;;;;;4990295;28;20084;-61
2023/08/05 00:06:27;;;;;;;8.30;3.97;;;;;;;;;;4987235;28;20042;-61
2023/08/05 00:08:53;;;;;;;7.88;4.07;;;;;;;;;;4969806;28;20050;-62
2023/08/05 00:11:19;;;;;;;4.72;3.75;;;;;;;;;;4986870;28;20140;-62
2023/08/05 00:13:45;;;;;;;6.93;4.47;;;;;;;;;;4986523;28;20049;-61
2023/08/05 00:16:11;;;;;;;6.85;3.63;;;;;;;;;;4990433;28;20042;-61
2023/08/05 00:18:38;;;;;;;6.47;4.38;;;;;;;;;;4985804;28;20046;-62
2023/08/05 00:21:04;;;;;;;7.20;4.38;;;;;;;;;;4986593;28;20060;-62
2023/08/05 00:23:31;;;;;;;7.22;4.38;;;;;;;;;;4983038;28;20083;-62
2023/08/05 00:25:57;;;;;;;5.63;3.42;;;;;;;;;;4952321;28;20081;-62
2023/08/05 00:28:25;;;;;;;5.22;4.28;;;;;;;;;;4972379;28;20057;-61
2023/08/05 00:30:51;;;;;;;5.57;3.38;;;;;;;;;;4987624;28;20053;-62
2023/08/05 00:33:17;;;;;;;7.50;4.90;;;;;;;;;;4984846;28;20050;-62
2023/08/05 00:35:43;;;;;;;6.82;3.83;;;20.20;99.90;;;;;;4985879;28;20061;-62
2023/08/05 00:38:09;;;;;;;8.68;3.78;;;;;;;;;;4983435;28;20042;-62
2023/08/05 00:40:35;;;;;;;7.07;4.30;;;;;;;;;;4985291;28;20046;-62
2023/08/05 00:43:01;;;;;;;8.40;4.13;;;;;;;;;;4985533;28;20057;-62
2023/08/05 00:45:27;;;;;;;6.40;4.03;;;;;;;;;;4992047;28;20131;-62
2023/08/05 00:47:53;;;;;;;11.13;3.80;;;;;;;;;;4986552;28;20446;-62
2023/08/05 00:50:20;;;;;;;4.97;3.50;;;;;;;;;;4983156;28;20438;-62
2023/08/05 00:52:46;;;;;;;5.20;4.30;;;;;;;;;;4983687;28;20030;-68
2023/08/05 00:55:12;;;;;;;8.63;4.25;;;;;;;;;;4984342;28;20046;-62
2023/08/05 00:57:39;;;;;;;5.88;4.18;;;;;;;;;;4985458;28;20073;-62
2023/08/05 01:00:05;;;;;;;5.03;3.25;;;;;;;;;;4983789;28;20717;-62
2023/08/05 01:02:31;;;;;;;12.40;4.25;;;;;;;;;;4987297;28;20122;-62
2023/08/05 01:04:57;;;;;;;8.15;3.83;;;;;;;;;;4983518;28;20034;-62
2023/08/05 01:07:24;;;;;;;8.40;3.90;;;;;;;;;;4986589;28;20050;-62
2023/08/05 01:09:50;;;;;;;8.80;3.88;;;;;;;;;;4983713;28;20243;-62
2023/08/05 01:12:16;;;;;;;9.75;4.45;;;;;;;;;;4988445;28;20410;-62
2023/08/05 01:14:42;;;;;;;6.07;3.90;;;;;;;;;;4983773;28;20034;-62
2023/08/05 01:17:08;;;;;;;8.25;3.90;;;;;;;;;;4977152;28;20125;-62
2023/08/05 01:19:35;;;;;;;6.22;4.43;;;;;;;;;;4965669;28;20070;-62
2023/08/05 01:22:09;;;;;;;7.82;3.95;;;;;;;;;;4985364;28;20046;-62
2023/08/05 01:24:46;;;;;;;7.03;4.07;;;;;;;;;;4984597;28;20046;-62
2023/08/05 01:27:13;;;;;;;9.27;4.47;;;;;;;;;;4985745;28;20046;-62
2023/08/05 01:29:39;;;;;;;6.30;3.60;;;;;;;;;;4992029;28;20038;-62
2023/08/05 01:32:06;;;;;;;8.43;4.32;;;;;;;;;;4984147;28;20045;-62
2023/08/05 01:34:32;;;;;;;6.55;4.00;;;;;;;;;;4991544;28;20039;-62
2023/08/05 01:36:58;;;;;;;9.73;4.55;;;;;;;;;;4986356;28;20054;-62
2023/08/05 01:39:24;;;;;;;8.32;3.80;;;;;;;;;;4967649;28;20666;-62
2023/08/05 01:41:51;;;;;;;9.55;4.18;;;;;;;;;;4967602;28;20038;-62
2023/08/05 01:44:17;;;;;;;7.13;5.07;;;;;;;;;;4989970;28;20046;-62
2023/08/05 01:46:43;;;;;;;8.07;4.72;;;;;;;;;;4996279;28;20622;-62
2023/08/05 01:49:09;;;;;;;6.30;4.40;;;;;;;;;;4989544;28;20045;-62
2023/08/05 01:51:35;;;;;;;7.60;4.72;;;;;;;;;;4990609;28;20050;-62
2023/08/05 01:54:01;;;;;;;6.82;4.00;;;;;;;;;;4988598;28;20057;-65
2023/08/05 01:56:27;;;;;;;7.60;4.18;;;;;;;;;;4980219;28;20045;-62
2023/08/05 01:58:53;;;;;;;10.65;5.00;;;;;;;;;;4992183;28;20478;-62
2023/08/05 02:01:20;;;;;;;9.95;4.53;;;;;;;;;;4973863;28;20038;-62
2023/08/05 02:03:46;;;;;;;8.40;4.88;;;;;;;;;;4990723;28;20039;-62
2023/08/05 02:06:14;;;;;;;5.55;4.18;;;;;;;;;;4990102;28;20067;-62
2023/08/05 02:08:40;;;;;;;9.07;5.07;;;;;;;;;;4989833;28;20410;-62
2023/08/05 02:11:06;;;;;;;9.30;5.15;;;;;;;;;;4974887;28;20138;-62
2023/08/05 02:13:32;;;;;;;7.03;5.00;;;;;;;;;;4989462;28;20061;-62
2023/08/05 02:16:02;;;;;;;7.88;4.53;;;;;;;;;;4986456;28;20143;-62
2023/08/05 02:18:34;;;;;;;7.95;4.53;;;;;;;;;;4990091;28;20125;-62
2023/08/05 02:21:00;;;;;;;6.70;4.45;;;;;;;;;;4994008;28;20125;-62
2023/08/05 02:23:27;;;;;;;6.53;4.55;;;;;;;;;;4989617;28;20034;-62
2023/08/05 02:25:53;;;;;;;10.25;5.20;;;;;;;;;;4985260;28;20043;-62
2023/08/05 02:28:19;;;;;;;8.52;4.15;;;;;;;;;;4991386;28;20494;-61
2023/08/05 02:30:45;;;;;;;7.13;3.67;;;;;;;;;;4971195;28;20470;-61
2023/08/05 02:33:11;;;;;;;7.38;4.65;;;;;;;;;;4990359;28;20057;-62
2023/08/05 02:35:38;;;;;;;9.18;4.97;;;;;;;;;;4989322;28;20038;-62
2023/08/05 02:38:04;;;;;;;7.85;4.03;;;;;;;;;;4990585;28;20123;-62
2023/08/05 02:40:33;;;;;;;5.40;4.18;;;;;;;;;;4972418;28;20042;-62
2023/08/05 02:43:00;;;;;;;5.43;3.50;;;;;;;;;;4989659;28;20186;-62
2023/08/05 02:45:26;;;;;;;6.20;3.92;;;;;;;;;;4988824;28;20097;-62
2023/08/05 02:47:52;;;;;;;6.78;4.63;;;;;;;;;;4994996;28;20049;-63
2023/08/05 02:50:18;;;;;;;7.43;3.85;;;;;;;;;;4989568;28;20140;-62
2023/08/05 02:52:44;;;;;;;6.70;3.92;;;;;;;;;;4975860;28;20128;-62
2023/08/05 02:55:10;;;;;;;6.50;3.90;;;;;;;;;;4987241;28;20129;-62
2023/08/05 02:57:36;;;;;;;6.95;3.53;;;;;;;;;;4987188;28;20042;-62
2023/08/05 03:00:03;;;;;;;6.22;4.00;;;;;;;;;;4987758;28;20070;-62
2023/08/05 03:02:30;;;;;;;6.82;4.38;;;;;;;;;;4989573;28;20456;-62
2023/08/05 03:04:56;;;;;;;4.97;3.30;;;;;;;;;;4986769;28;20125;-62
2023/08/05 03:07:22;;;;;;;6.72;4.10;;;;;;;;;;4989879;28;20445;-62
2023/08/05 03:09:48;;;;;;;5.85;3.63;;;;;;;;;;4988207;28;20101;-62
2023/08/05 03:12:14;;;;;;;7.80;4.22;;;;;;;;;;4988401;28;20035;-62
2023/08/05 03:14:40;;;;;;;7.07;3.67;;;;;;;;;;4988108;28;20492;-62
2023/08/05 03:17:07;;;;;;;6.90;4.13;;;;;;;;;;4970699;28;20102;-62
2023/08/05 03:19:33;;;;;;;7.25;4.35;;;;;;;;;;4990408;28;20039;-62
2023/08/05 03:22:02;;;;;;;8.00;3.60;;;;;;;;;;4997975;28;20354;-62
2023/08/05 03:24:28;;;;;;;6.97;4.80;;;;;;;;;;4988594;28;20242;-62
2023/08/05 03:26:55;;;;;;;6.13;4.00;;;;;;;;;;4988395;28;20114;-62
2023/08/05 03:29:21;;;;;;;7.88;4.55;;;;;;;;;;4999502;28;20054;-62
2023/08/05 03:31:47;;;;;;;8.45;4.95;;;;;;;;;;5005602;28;20042;-62
2023/08/05 03:34:13;;;;;;;7.85;5.03;;;;;;;;;;5000101;28;20049;-62
2023/08/05 03:36:39;;;;;;;7.32;4.38;;;;;;;;;;4989948;28;20128;-62
2023/08/05 03:39:05;;;;;;;7.38;4.95;;;;;;;;;;4988898;28;20601;-62
2023/08/05 03:41:33;;;;;;;6.13;4.30;;;;;;;;;;4988979;28;20393;-62
2023/08/05 03:44:01;;;;;;;13.48;6.15;;;;;;;;;;4985257;28;20045;-62
2023/08/05 03:46:28;;;;;;;10.80;5.43;;;;;;;;;;4969489;28;20043;-62
2023/08/05 03:48:55;;;;;;;7.18;4.93;;;;;;;;;;4978914;28;20114;-62
2023/08/05 03:51:21;;;;;;;8.05;5.05;;;;;;;;;;4988718;28;20054;-62
2023/08/05 03:53:47;;;;;;;9.10;5.75;;;;;;;;;;4984717;28;20042;-62
2023/08/05 03:56:14;;;;;;;6.28;4.85;;;;;;;;;;4962743;28;20082;-62
2023/08/05 03:58:40;;;;;;;8.27;5.55;;;;;;;;;;4984208;28;20042;-63
2023/08/05 04:01:07;;;;;;;8.15;5.15;;;;;;;;;;4970437;28;20046;-62
2023/08/05 04:03:36;;;;;;;6.80;5.30;;;;;;;;;;4988224;28;20085;-62
2023/08/05 04:06:02;;;;;;;7.50;4.85;;;;;;;;;;4985467;28;20061;-62
2023/08/05 04:08:28;;;;;;;6.38;3.95;;;;;;;;;;4986839;28;20133;-62
2023/08/05 04:10:56;;;;;;;8.25;5.30;;;;;;;;;;4987653;28;20034;-63
2023/08/05 04:13:24;;;;;;;7.10;4.85;;;;;;;;;;4996713;28;20054;-62
2023/08/05 04:15:53;;;;;;;9.18;5.05;;;;;;;;;;4969902;28;20038;-63
2023/08/05 04:18:20;;;;;;;9.77;5.07;;;;;;;;;;4996280;28;20120;-63
2023/08/05 04:20:52;;;;;;;9.13;5.22;;;;;;;;;;4986140;28;20042;-63
2023/08/05 04:23:24;;;;;;;7.65;4.72;;;;;;;;;;4970095;28;20141;-63
2023/08/05 04:25:50;;;;;;;7.10;4.65;;;;;;;;;;4987998;28;20576;-66
2023/08/05 04:28:16;;;;;;;6.25;3.75;;;;;;;;;;4998902;28;20046;-62
2023/08/05 04:30:42;;;;;;;6.78;3.97;;;;;;;;;;4988756;28;20101;-62
2023/08/05 04:33:08;;;;;;;8.00;4.88;;;;;;;;;;4986036;28;20042;-63
2023/08/05 04:35:36;;;;;;;9.15;4.57;;;;;;;;;;4986824;28;20480;-63
2023/08/05 04:38:02;;;;;;;8.25;5.15;;;;;;;;;;4987000;28;20430;-62
2023/08/05 04:40:28;;;;;;;5.55;4.13;;;;;;;;;;4986647;28;20034;-62
2023/08/05 04:42:54;;;;;;;10.70;4.50;;;;;;;;;;4987251;28;20342;-62
2023/08/05 04:45:20;;;;;;;8.35;4.22;;;;;;;;;;4973104;28;20073;-64
2023/08/05 04:47:47;;;;;;;6.75;4.70;;;;;;;;;;4965401;28;20038;-63
2023/08/05 04:50:13;;;;;;;9.45;3.95;;;;;;;;;;4984330;28;20056;-62
2023/08/05 04:52:39;;;;;;;7.75;4.50;;;;;;;;;;4986777;28;20052;-62
2023/08/05 04:55:09;;;;;;;9.73;3.83;;;;;;;;;;4985252;28;20230;-63
2023/08/05 04:57:35;;;;;;;5.55;3.47;;;;;;;;;;4985425;28;20038;-63
2023/08/05 05:00:02;;;;;;;7.88;4.28;;;;;;;;;;4986509;28;20053;-63
2023/08/05 05:02:28;;;;;;;6.32;4.35;;;;;;;;;;4991892;28;20086;-62
2023/08/05 05:04:54;;;;;;;5.50;3.97;;;;;;;;;;4974434;28;20498;-63
2023/08/05 05:07:20;;;;;;;8.05;3.90;;;;;;;;;;4959720;28;20033;-62
2023/08/05 05:09:46;;;;;;;6.22;3.13;;;;;;;;;;4988809;28;20117;-63
2023/08/05 05:12:12;;;;;;;6.32;4.15;;;;;;;;;;4984103;28;20133;-63
2023/08/05 05:14:45;;;;;;;6.57;4.18;;;;;;;;;;4983622;28;20550;-65
2023/08/05 05:17:15;;;;;;;6.18;3.53;;;;;;;;;;4976495;28;20059;-62
2023/08/05 05:19:41;;;;;;;5.35;2.95;;;;;;;;;;4984633;28;20050;-62
2023/08/05 05:22:08;;;;;;;8.20;3.90;;;;;;;;;;4993677;28;20125;-63
2023/08/05 05:24:34;;;;;;;7.97;4.38;;;;;;;;;;4985899;28;20038;-63
2023/08/05 05:27:01;;;;;;;9.52;3.65;;;;;;;;;;4978334;28;20072;-62
2023/08/05 05:29:29;;;;;;;6.72;3.55;;;;;;;;;;4969131;28;20058;-62
2023/08/05 05:31:55;;;;;;;6.38;3.20;;;;;;;;;;4987173;28;20096;-62
2023/08/05 05:34:21;;;;;;;6.25;3.30;;;;;;;;;;4987430;28;20143;-62
2023/08/05 05:36:47;;;;;;;4.63;3.30;;;;;;;;;;4988544;28;20038;-62
2023/08/05 05:39:13;;;;;;;5.55;3.33;;;;;;;;;;4987663;28;20097;-62
2023/08/05 05:41:39;;;;;;;4.15;2.88;;;;;;;;;;4986060;28;20417;-62
2023/08/05 05:44:06;;;;;;;5.80;2.92;;;;;;;;;;4985517;28;20042;-62
2023/08/05 05:46:32;;;;;;;8.60;3.08;;;;;;;;;;4969580;28;20038;-62
2023/08/05 05:48:58;;;;;;;4.93;3.05;;;;;;;;;;4987332;28;20046;-62
2023/08/05 05:51:25;;;;;;;5.30;2.70;;;;;;;;;;4987035;28;20436;-62
2023/08/05 05:53:51;;;;;;;5.72;3.28;;;;;;;;;;4970128;28;20080;-62
2023/08/05 05:56:18;;;;;;;5.57;3.10;;;;;;;;;;4985881;28;20042;-62
2023/08/05 05:58:44;;;;;;;5.38;3.15;;;;;;;;;;4985165;28;20047;-62
2023/08/05 06:01:10;;;;;;;4.68;2.70;;;;;;;;;;4968031;28;20591;-62
2023/08/05 06:03:37;;;;;;;7.10;2.83;;;;;;;;;;4986210;28;20480;-62
2023/08/05 06:06:03;;;;;;;6.80;3.03;;;;;;;;;;4969376;28;20156;-62
2023/08/05 06:08:30;;;;;;;7.82;2.70;;;;;;;;;;4986571;28;20054;-61
2023/08/05 06:10:56;;;;;;;6.43;3.40;;;;;;;;;;4986254;28;20358;-62
2023/08/05 06:13:22;;;;;;;4.95;2.95;;;;;;;;;;4984742;28;20136;-62
2023/08/05 06:15:49;;;;;;;5.30;3.08;;;;;;;;;;4981454;28;20042;-62
2023/08/05 06:18:15;;;;;;;6.70;2.80;;;;;;;;;;4983439;28;20386;-62
2023/08/05 06:20:44;;;;;;;4.68;2.72;;;;;;;;;;4991704;28;20065;-62
2023/08/05 06:23:10;;;;;;;5.47;3.05;;;;;;;;;;4979697;28;20043;-62
2023/08/05 06:25:37;;;;;;;10.73;3.35;;;;;;;;;;4981715;28;20038;-63
2023/08/05 06:28:07;;;;;;;5.50;2.53;;;;;;;;;;4981851;28;20046;-62
2023/08/05 06:30:36;;;;;;;6.28;2.45;;;;;;;;;;4966142;28;20042;-62
2023/08/05 06:33:03;;;;;;;4.68;3.00;;;;;;;;;;4986668;28;20513;-62
2023/08/05 06:35:29;;;;;;;5.18;2.78;;;;;;;;;;4972270;28;20034;-62
2023/08/05 06:37:55;;;;;;;5.05;2.58;;;;;;;;;;4987854;28;20121;-62
2023/08/05 06:40:22;;;;;;;6.35;3.47;;;;;;;;;;4984176;28;20043;-62
2023/08/05 06:42:50;;;;;;;3.63;2.80;;;;;;;;;;4945915;28;20075;-62
2023/08/05 06:45:16;;;;;;;4.57;3.25;;;;;;;;;;4978515;28;20397;-62
2023/08/05 06:47:42;;;;;;;5.30;2.50;;;;;;;;;;4988994;28;20064;-61
2023/08/05 06:50:09;;;;;;;4.18;2.67;;;;;;;;;;4981932;28;20289;-62
2023/08/05 06:52:36;;;;;;;4.15;2.85;;;;;;;;;;4969217;28;20477;-62
2023/08/05 06:55:03;;;;;;;3.95;2.53;;;;;;;;;;4955561;28;20375;-62
2023/08/05 06:57:32;;;;;;;3.92;2.25;;;;;;;;;;4987078;28;20042;-62
2023/08/05 07:00:02;;;;;;;3.75;2.15;;;;;;;;;;4983162;28;20038;-63
2023/08/05 07:02:37;;;;;;;6.28;3.65;;;;;;;;;;4988457;28;20118;-62
2023/08/05 07:05:04;;;;;;;4.15;2.67;;;;;;;;;;4966952;28;20042;-62
2023/08/05 07:07:31;;;;;;;6.00;2.60;;;;;;;;;;4971873;28;20121;-62
2023/08/05 07:10:01;;;;;;;4.78;2.70;;;;;;;;;;4985560;28;20102;-62
2023/08/05 07:12:28;;;;;;;3.33;2.33;;;;;;;;;;4976949;28;20042;-62
2023/08/05 07:14:54;;;;;;;4.85;2.45;;;;;;;;;;4984203;28;20090;-61
2023/08/05 07:17:22;;;;;;;3.42;2.65;;;;;;;;;;4990500;28;20128;-63
2023/08/05 07:19:49;;;;;;;4.30;2.50;;;;;;;;;;4992525;28;20038;-62
2023/08/05 07:22:18;;;;;;;3.28;2.60;;;;;;;;;;4956850;28;20042;-62
2023/08/05 07:24:44;;;;;;;7.43;2.80;;;;;;;;;;4957956;28;20076;-64
2023/08/05 07:27:10;;;;;;;3.95;2.80;;;;;;;;;;4982132;28;20093;-62
2023/08/05 07:29:38;;;;;;;4.00;2.72;;;;;;;;;;4965034;28;20610;-63
2023/08/05 07:32:04;;;;;;;6.03;3.03;;;;;;;;;;4966643;28;20131;-62
2023/08/05 07:34:32;;;;;;;4.22;2.60;;;;;;;;;;4959549;28;20612;-62
2023/08/05 07:36:59;;;;;;;3.63;2.42;;;;;;;;;;4963053;28;20038;-63
2023/08/05 07:39:30;;;;;;;3.70;2.45;;;;;;;;;;4984182;28;20049;-62
2023/08/05 07:41:56;;;;;;;5.85;3.13;;;;;;;;;;4963240;28;20062;-61
2023/08/05 07:44:23;;;;;;;4.65;2.47;;;;;;;;;;4989837;28;20126;-61
2023/08/05 07:46:52;;;;;;;3.13;2.05;;;;;;;;;;4959000;28;20061;-61
2023/08/05 07:49:18;;;;;;;4.57;2.85;;;;;;;;;;4965281;28;20054;-61
2023/08/05 07:51:47;;;;;;;6.93;2.72;;;;;;;;;;4977986;28;20532;-62
2023/08/05 07:54:13;;;;;;;6.03;2.88;;;;;;;;;;4982505;28;20523;-61
2023/08/05 07:56:41;;;;;;;6.93;2.97;;;;;;;;;;4964451;28;20082;-61
2023/08/05 07:59:08;;;;;;;4.88;2.88;;;;;;;;;;4980100;28;20310;-61
2023/08/05 08:01:34;;;;;;;4.93;2.60;;;;;;;;;;4979319;28;20041;-65
2023/08/05 08:04:02;;;;;;;4.82;2.67;;;;;;;;;;4964205;28;20294;-63
2023/08/05 08:06:29;;;;;;;4.30;2.63;;;;;;;;;;4975328;28;20506;-61
2023/08/05 08:08:55;;;;;;;4.97;2.45;;;;;;;;;;4981148;28;20509;-61
2023/08/05 08:11:21;;;;;;;5.30;2.28;;;;;;;;;;4980687;28;20054;-61
2023/08/05 08:13:47;;;;;;;5.47;2.25;;;;;;;;;;4982000;28;20038;-61
2023/08/05 08:16:15;;;;;;;14.68;2.70;;;;;;;;;;4978556;28;20050;-61
2023/08/05 08:18:41;;;;;;;4.75;2.63;;;;;;;;;;4941295;28;20047;-63
2023/08/05 08:21:08;;;;;;;5.18;2.30;;;;;;;;;;4976760;28;20038;-61
2023/08/05 08:23:34;;;;;;;5.35;2.75;;;;;;;;;;4938618;28;20050;-61
2023/08/05 08:26:00;;;;;;;3.78;2.53;;;;;;;;;;4973793;28;20468;-61
2023/08/05 08:28:27;;;;;;;3.63;2.20;;;;;;;;;;4984050;28;20052;-61
2023/08/05 08:30:57;;;;;;;9.23;3.53;;;;;;;;;;4975424;28;20232;-61
2023/08/05 08:33:28;;;;;;;3.55;2.72;;;;;;;;;;4959557;28;20422;-61
2023/08/05 08:35:54;;;;;;;4.43;2.30;;;;;;;;;;4982042;28;20105;-61
2023/08/05 08:38:22;;;;;;;5.07;2.53;;;;;;;;;;4955881;28;20058;-61
2023/08/05 08:40:49;;;;;;;6.43;2.85;;;;;;;;;;4978718;28;20505;-62
2023/08/05 08:43:19;;;;;;;3.20;2.38;;;;;;;;;;4983220;28;20490;-59
2023/08/05 08:45:47;;;;;;;3.85;2.00;;;;;;;;;;4980831;28;20068;-61
2023/08/05 08:48:15;;;;;;;4.32;2.60;;;;;;;;;;4980517;28;20046;-62
2023/08/05 08:50:42;;;;;;;4.93;2.70;;;;;;;;;;4978425;28;20674;-62
2023/08/05 08:53:08;;;;;;;6.25;2.95;;;;;;;;;;4957094;28;20758;-62
2023/08/05 08:55:34;;;;;;;5.90;2.80;;;;;;;;;;4986941;28;20340;-62
2023/08/05 08:58:01;;;;;;;4.75;2.92;;;;;;;;;;4982115;28;20047;-62
2023/08/05 09:00:27;;;;;;;5.50;2.97;;;;;;;;;;4978889;28;20343;-62
2023/08/05 09:02:54;;;;;;;5.43;2.80;;;;;;;;;;4982840;28;20074;-62
2023/08/05 09:05:20;;;;;;;4.72;3.00;;;;;;;;;;4982101;28;20046;-62
2023/08/05 09:07:47;;;;;;;4.35;3.13;;;;;;;;;;4982867;28;20046;-61
2023/08/05 09:10:13;;;;;;;7.43;2.72;;;;;;;;;;4981997;28;20513;-62
2023/08/05 09:12:40;;;;;;;4.05;2.40;;;;;;;;;;4981559;28;20057;-62
2023/08/05 09:15:07;;;;;;;7.57;2.65;;;;;;;;;;4981548;28;20437;-62
2023/08/05 09:17:39;;;;;;;9.35;2.88;;;;;;;;;;4982904;28;20085;-62
2023/08/05 09:20:12;;;;;;;4.68;2.47;;;;;;;;;;4978987;28;20048;-61
2023/08/05 09:22:38;;;;;;;4.47;2.40;;;;;;;;;;4982402;28;20200;-62
2023/08/05 09:25:05;;;;;;;6.07;2.78;;;;;;;;;;4981606;28;20061;-62
2023/08/05 09:27:45;;;;;;;3.20;2.40;;;;;;;;;;4935368;28;20113;-62
2023/08/05 09:30:16;;;;;;;3.10;1.85;;;;;;;;;;4970811;28;20061;-62
2023/08/05 09:32:44;;;;;;;4.57;2.75;;;;;;;;;;4936146;28;20422;-62
2023/08/05 09:35:11;;;;;;;3.35;2.42;;;;;;;;;;4982906;28;20050;-62
2023/08/05 09:37:39;;;;;;;5.90;2.95;;;;;;;;;;4957251;28;20046;-62
2023/08/05 09:40:15;;;;;;;3.92;2.97;;;;;;;;;;4981896;28;20046;-62
2023/08/05 09:42:42;;;;;;;3.63;2.67;;;;;;;;;;4974711;28;20509;-62
2023/08/05 09:45:09;;;;;;;5.32;2.58;;;;;;;;;;4980834;28;20181;-62
2023/08/05 09:47:35;;;;;;;4.60;2.38;;;;;;;;;;4977589;28;20424;-62
2023/08/05 09:50:07;;;;;;;3.42;1.90;;;;;;;;;;4982723;28;20052;-62
2023/08/05 09:52:34;;;;;;;5.28;2.92;;;;;;;;;;4978856;28;20038;-62
2023/08/05 09:55:03;;;;;;;5.63;2.80;;;;;;;;;;4960282;28;20168;-62
2023/08/05 09:57:33;;;;;;;4.00;2.63;;;;;;;;;;4963395;28;20618;-62
2023/08/05 10:00:00;;;;;;;3.75;2.20;;;;;;;;;;4981335;28;20408;-62
2023/08/05 10:02:27;;;;;;;4.45;2.40;;;;;;;;;;4979969;28;20113;-62
2023/08/05 10:04:54;;;;;;;5.32;2.78;;;;;;;;;;4986034;28;20070;-61
2023/08/05 10:07:25;;;;;;;3.92;2.15;;;;;;;;;;4986924;28;20111;-62
2023/08/05 10:09:52;;;;;;;8.80;2.85;;;;;;;;;;4987523;28;20054;-62
2023/08/05 10:12:23;;;;;;;4.45;2.28;;;;;;;;;;4985939;28;20050;-62
2023/08/05 10:14:49;;;;;;;6.50;2.80;;;;;;;;;;4983470;28;20350;-63
2023/08/05 10:17:17;;;;;;;7.95;3.42;;;;;;;;;;4967658;28;20809;-62
2023/08/05 10:19:47;;;;;;;4.57;2.67;;;;;;;;;;4988237;28;20050;-63
2023/08/05 10:22:14;;;;;;;4.15;2.53;;;;;;;;;;4986051;28;20132;-62
2023/08/05 10:24:50;;;;;;;3.30;2.30;;;;;;;;;;4951175;28;20646;-63
2023/08/05 10:27:17;;;;;;;3.33;2.03;;;;;;;;;;4981297;28;20041;-62
2023/08/05 10:29:57;;;;;;;3.88;2.10;;;;;;;;;;4984374;28;20157;-63
2023/08/05 10:32:29;;;;;;;4.47;2.65;;;;;;;;;;4984886;28;20057;-63
2023/08/05 10:35:22;;;;;;;2.97;2.00;;;;;;;;;;4983588;28;20038;-63
2023/08/05 10:37:48;;;;;;;5.70;2.35;;;;;;;;;;4979192;28;20050;-63
2023/08/05 10:40:34;;;;;;;2.97;2.15;;;;;;;;;;4980300;28;20129;-63
2023/08/05 10:43:00;;;;;;;3.72;1.95;;;;;;;;;;4979151;28;20038;-62
2023/08/05 10:45:27;;;;;;;3.58;2.78;;;;;;;;;;4956468;28;20089;-62
2023/08/05 10:47:53;;;;;;;4.72;2.40;;;;;;;;;;4969480;28;20125;-62
2023/08/05 10:50:19;;;;;;;3.05;1.90;;;;;;;;;;4986532;28;20038;-62
2023/08/05 10:52:46;;;;;;;5.13;2.53;;;;;;;;;;4969062;28;20085;-62
2023/08/05 10:55:12;;;;;;;4.80;2.28;;;;;;;;;;4986933;28;20297;-62
2023/08/05 10:57:38;;;;;;;3.97;2.70;;;;;;;;;;4988548;28;20512;-63
2023/08/05 11:00:07;;;;;;;4.22;2.05;;;;;;;;;;4987197;28;20046;-63
2023/08/05 11:02:37;;;;;;;3.55;2.00;;;;;;;;;;4986873;28;20038;-62
2023/08/05 11:05:07;;;;;;;2.95;2.22;;;;;;;;;;4989172;28;20050;-62
2023/08/05 11:07:36;;;;;;;4.97;2.88;;;;;;;;;;4989018;28;20380;-62
2023/08/05 11:10:04;;;;;;;4.85;2.50;;;;;;;;;;4988195;28;20046;-63
2023/08/05 11:12:30;;;;;;;6.30;3.10;;;;;;;;;;4989052;28;20042;-62
2023/08/05 11:14:57;;;;;;;4.25;2.50;;;;;;;;;;4981237;28;20074;-62
2023/08/05 11:17:23;;;;;;;6.72;3.33;;;;;;;;;;4992821;28;20127;-62
2023/08/05 11:19:53;;;;;;;5.20;2.90;;;;;;;;;;4987390;28;20505;-62
2023/08/05 11:22:29;;;;;;;5.93;3.33;;;;;;;;;;4988505;28;20109;-64
2023/08/05 11:24:58;;;;;;;7.35;3.67;;;;;;;;;;4987762;28;20034;-64
2023/08/05 11:27:39;;;;;;;4.10;2.53;;;;;;;;;;4988825;28;20061;-62
2023/08/05 11:30:15;;;;;;;4.03;2.83;;;;;;;;;;4977771;28;20133;-63
2023/08/05 11:32:55;;;;;;;5.95;3.25;;;;;;;;;;4978426;28;20046;-64
2023/08/05 11:35:22;;;;;;;6.18;3.15;;;;;;;;;;4989936;28;20069;-63
2023/08/05 11:37:48;;;;;;;4.63;2.95;;;;;;;;;;4985505;28;20038;-63
2023/08/05 11:40:14;;;;;;;5.53;3.00;;;;;;;;;;4990085;28;20204;-64
2023/08/05 11:42:40;;;;;;;6.03;2.45;;;;;;;;;;4983769;28;20125;-63
2023/08/05 11:45:11;;;;;;;4.75;2.40;;;;;;;;;;4984269;28;20042;-63
2023/08/05 11:47:40;;;;;;;4.50;2.45;;;;;;;;;;4986153;28;20485;-65
2023/08/05 11:50:07;;;;;;;25.13;6.28;;;;;;;;;;4971039;28;20663;-62
2023/08/05 11:52:33;;;;;;;18.67;5.32;;;;;;;;;;4987270;28;20049;-63
2023/08/05 11:55:00;;;;;;;20.40;4.90;;;;;;;;;;4975042;28;20050;-62
2023/08/05 11:57:27;;;;;;;12.80;4.10;;;;;;;;;;4987405;28;20054;-64
2023/08/05 11:59:55;;;;;;;10.60;3.90;;;;;;;;;;4989442;28;20683;-63
2023/08/05 12:02:22;;;;;;;10.55;4.30;;;;;;;;;;4966338;28;20066;-65
2023/08/05 12:04:56;;;;;;;6.32;3.55;;;;;;;;;;4978222;28;20220;-62
2023/08/05 12:07:22;;;;;;;7.70;3.65;;;;;;;;;;4986601;28;20118;-63
2023/08/05 12:10:05;;;;;;;15.18;4.03;;;;;;;;;;4982928;28;20053;-65
2023/08/05 12:12:31;;;;;;;14.50;3.67;;;;;;;;;;4979088;28;20108;-67
2023/08/05 12:15:14;;;;;;;9.00;4.22;;;;;;;;;;4983733;28;20472;-64
2023/08/05 12:17:46;;;;;;;6.38;3.13;;;;;;;;;;4979035;28;20109;-67
2023/08/05 12:20:15;;;;;;;8.13;3.60;;;;;;;;;;4985162;28;20209;-66
2023/08/05 12:22:41;;;;;;;8.32;3.75;;;;;;;;;;4968282;28;20050;-64
2023/08/05 12:25:07;;;;;;;11.73;4.88;;;;;;;;;;4978344;28;20046;-65
2023/08/05 12:27:33;;;;;;;8.10;4.10;;;;;;;;;;4976228;28;20045;-65
2023/08/05 12:30:00;;;;;;;7.93;3.55;;;;;;;;;;4984194;28;20490;-65
2023/08/05 12:32:26;;;;;;;5.18;3.40;;;;;;;;;;4982827;28;20060;-66
2023/08/05 12:34:52;;;;;;;5.07;3.75;;;;;;;;;;4987056;28;20046;-66
2023/08/05 12:37:18;;;;;;;7.25;3.35;;;;;;;;;;4985704;28;20156;-64
2023/08/05 12:39:44;;;;;;;6.70;3.75;;;;;;;;;;4967169;28;20465;-64
2023/08/05 12:42:11;;;;;;;7.45;3.60;;;;;;;;;;4959090;28;20070;-63
2023/08/05 12:44:37;;;;;;;5.47;3.17;;;;;;;;;;4984984;28;20066;-63
2023/08/05 12:47:03;;;;;;;5.45;3.70;;;;;;;;;;4989058;28;20108;-66
2023/08/05 12:49:29;;;;;;;4.32;3.40;;;;;;;;;;4987398;28;20038;-63
2023/08/05 12:51:55;;;;;;;4.70;3.42;;;;;;;;;;4966639;28;20524;-63
2023/08/05 12:54:21;;;;;;;15.20;4.28;;;;;;;;;;4985902;28;20034;-63
2023/08/05 12:56:47;;;;;;;9.82;4.75;;;;;;;;;;4986349;28;20045;-64
2023/08/05 12:59:13;;;;;;;12.00;4.90;;;;;;;;;;4981683;28;20054;-64
2023/08/05 13:01:40;;;;;;;11.80;4.72;;;;;;;;;;4978801;28;20117;-64
2023/08/05 13:04:06;;;;;;;9.68;4.25;;;;;;;;;;4967289;28;20042;-64
2023/08/05 13:06:32;;;;;;;6.95;4.22;;;;;;;;;;4984257;28;20041;-64
2023/08/05 13:08:58;;;;;;;7.93;4.30;;;;;;;;;;4966867;28;20054;-62
2023/08/05 13:11:24;;;;;;;13.35;4.32;;;;;;;;;;4985124;28;20493;-61
2023/08/05 13:13:50;;;;;;;6.25;3.58;;;;;;;;;;4979865;28;21048;-61
2023/08/05 13:16:16;;;;;;;4.75;3.17;;;;;;;;;;4980165;28;20690;-61
2023/08/05 13:18:44;;;;;;;6.75;3.85;;;;;;;;;;4984128;28;20141;-61
2023/08/05 13:21:10;;;;;;;5.55;3.13;;;;;;;;;;4965349;28;20069;-61
2023/08/05 13:23:36;;;;;;;6.15;4.40;;;;;;;;;;4964349;28;20441;-61
2023/08/05 13:26:02;;;;;;;6.07;3.60;;;;;;;;;;4982694;28;20480;-61
2023/08/05 13:28:28;;;;;;;6.13;3.83;;;;;;;;;;4984214;28;20060;-61
2023/08/05 13:31:01;;;;;;;5.95;3.90;;;;;;;;;;4983625;28;20271;-61
2023/08/05 13:33:27;;;;;;;;;;;;;;;;;;4985028;28;20121;-63
2023/08/05 13:35:53;;;;;;;7.72;4.47;;;;;;;;;;4985433;28;20016;-63
2023/08/05 13:38:20;;;;;;;4.43;3.60;;;;;;;;;;4986372;28;20542;-63
2023/08/05 13:40:52;;;;;;;5.60;3.05;;;;;;;;;;4991202;28;20053;-63
2023/08/05 13:43:18;;;;;;;2.85;1.83;;;;;;;;;;4991530;28;20149;-63
2023/08/05 13:45:48;;;;;;;3.50;1.23;;;;;;;;;;4992218;28;20038;-63
2023/08/05 13:48:14;;;;;;;4.68;1.90;;;;;;;;;;4989235;28;20389;-63
2023/08/05 13:50:41;;;;;;;3.40;1.83;;;;;;;;;;4987849;28;20053;-63
2023/08/05 13:53:07;;;;;;;2.38;1.67;;;;;;;;;;4990702;28;20141;-63
2023/08/05 13:55:33;;;;;;;5.57;2.33;;;;;;;;;;4989767;28;20038;-63
2023/08/05 13:58:00;;;;;;;7.55;2.30;;;;;;;;;;4972516;28;20499;-63
2023/08/05 14:00:26;;;;;;;3.92;1.77;;;;;;;;;;4988461;28;20134;-62
2023/08/05 14:02:52;;;;;;;6.38;2.47;;;;;;;;;;4988935;28;20072;-62
2023/08/05 14:05:19;;;;;;;5.70;2.38;;;;;;;;;;4989904;28;20138;-62
2023/08/05 14:07:45;;;;;;;7.65;2.33;;;;;;;;;;4988023;28;20053;-63
2023/08/05 14:10:11;;;;;;;3.67;1.60;;;;;;;;;;4989243;28;20398;-62
2023/08/05 14:12:37;;;;;;;2.15;1.60;;;;;;;;;;4972597;28;20084;-62
2023/08/05 14:15:04;;;;;;;7.43;2.15;;;;;;;;;;4988518;28;20054;-63
2023/08/05 14:17:30;;;;;;;2.67;1.90;;;;;;;;;;4989540;28;20497;-63
2023/08/05 14:19:56;;;;;;;2.97;1.80;;;;;;;;;;4969017;28;20150;-62
2023/08/05 14:22:22;;;;;;;3.83;1.75;;;;;;;;;;4989429;28;20332;-62
2023/08/05 14:24:49;;;;;;;2.03;1.50;;;;;;;;;;4990938;28;20030;-63
2023/08/05 14:27:16;;;;;;;3.67;2.28;;;;;;;;;;4986579;28;20277;-62
2023/08/05 14:29:42;;;;;;;2.63;2.13;;;;;;;;;;4998583;28;20419;-63
2023/08/05 14:32:08;;;;;;;3.65;2.10;;;;;;;;;;4985080;28;20052;-62
2023/08/05 14:34:34;;;;;;;3.30;1.83;;;;;;;;;;4987191;28;20125;-62
2023/08/05 14:37:00;;;;;;;2.08;1.55;;;;;;;;;;4988298;28;20136;-62
2023/08/05 14:39:27;;;;;;;3.40;1.98;;;;;;;;;;4988095;28;20125;-63
2023/08/05 14:41:53;;;;;;;2.83;2.20;;;;;;;;;;4984684;28;20042;-63
2023/08/05 14:44:19;;;;;;;3.10;2.03;;;;;;;;;;4987856;28;20093;-62